Time;durP1;ratioP1;P1;durP2;ratioP2;P2;SDS_P1;SDS_P2;PMS_P1;PMS_P2;Temp;Humidity;BMP_temperature;BMP_pressure;BME280_temperature;BME280_humidity;BME280_pressure;Samples;Min_cycle;Max_cycle;Signal;HPM_P1;HPM_P2
2022/06/21 00:02:04;;;;;;;4.35;3.65;;;25.80;58.80;;;;;;4975895;28;20765;-66
2022/06/21 00:04:31;;;;;;;4.53;3.50;;;25.80;58.80;;;;;;4991942;28;20390;-67
2022/06/21 00:07:01;;;;;;;4.82;4.13;;;25.80;58.70;;;;;;4991979;28;20758;-66
2022/06/21 00:09:26;;;;;;;5.13;3.80;;;25.80;58.80;;;;;;4992265;28;20469;-64
2022/06/21 00:11:52;;;;;;;4.13;3.47;;;25.80;58.80;;;;;;4991629;28;20478;-65
2022/06/21 00:14:18;;;;;;;4.97;3.70;;;25.80;58.80;;;;;;4974571;28;20409;-64
2022/06/21 00:16:44;;;;;;;4.95;3.80;;;25.80;58.80;;;;;;4992187;28;20448;-65
2022/06/21 00:19:24;;;;;;;4.10;3.60;;;25.70;58.70;;;;;;4992138;28;20390;-65
2022/06/21 00:21:51;;;;;;;5.95;3.80;;;25.70;58.70;;;;;;4991450;28;20418;-66
2022/06/21 00:24:17;;;;;;;4.70;3.90;;;25.70;58.80;;;;;;4992413;28;20445;-66
2022/06/21 00:26:45;;;;;;;4.70;3.78;;;25.70;58.70;;;;;;4991772;28;20445;-64
2022/06/21 00:29:12;;;;;;;4.45;3.67;;;25.80;58.80;;;;;;4992063;28;20423;-66
2022/06/21 00:31:44;;;;;;;4.50;3.65;;;25.70;58.80;;;;;;4991795;28;20818;-65
2022/06/21 00:34:15;;;;;;;3.90;3.50;;;25.70;58.80;;;;;;4974512;28;20922;-65
2022/06/21 00:36:42;;;;;;;4.73;3.70;;;25.70;58.70;;;;;;4992038;28;20394;-65
2022/06/21 00:39:15;;;;;;;4.88;3.78;;;25.70;59.40;;;;;;4991981;28;20478;-65
2022/06/21 00:41:44;;;;;;;4.50;3.85;;;25.70;58.80;;;;;;4991110;28;20496;-65
2022/06/21 00:44:38;;;;;;;4.50;3.90;;;25.70;58.80;;;;;;4990947;28;20413;-65
2022/06/21 00:47:12;;;;;;;4.82;3.53;;;25.70;58.80;;;;;;4974153;28;20490;-66
2022/06/21 00:50:00;;;;;;;4.45;3.47;;;25.70;58.80;;;;;;4974714;28;20418;-65
2022/06/21 00:52:53;;;;;;;4.95;3.85;;;25.70;58.80;;;;;;4991702;28;20382;-64
2022/06/21 00:55:46;;;;;;;4.53;3.70;;;25.70;58.80;;;;;;4991778;28;20460;-64
2022/06/21 00:58:14;;;;;;;4.97;3.65;;;25.60;58.70;;;;;;4991793;28;20478;-65
2022/06/21 01:01:13;;;;;;;4.63;3.70;;;25.70;58.80;;;;;;4974037;28;20413;-65
2022/06/21 01:03:42;;;;;;;4.60;3.93;;;25.70;59.40;;;;;;4974271;28;20471;-66
2022/06/21 01:06:14;;;;;;;4.97;4.20;;;25.70;58.80;;;;;;4991566;28;20394;-66
2022/06/21 01:08:45;;;;;;;4.10;3.53;;;25.70;58.80;;;;;;4974398;28;20437;-66
2022/06/21 01:11:21;;;;;;;4.50;3.53;;;25.70;58.80;;;;;;4974229;28;20494;-65
2022/06/21 01:13:50;;;;;;;4.88;3.80;;;25.60;58.70;;;;;;4991199;28;20938;-65
2022/06/21 01:16:16;;;;;;;4.38;3.60;;;25.60;58.80;;;;;;4974747;28;20413;-65
2022/06/21 01:18:43;;;;;;;4.45;3.60;;;25.60;58.70;;;;;;4977513;28;20445;-66
2022/06/21 01:21:11;;;;;;;4.93;3.67;;;25.60;58.80;;;;;;4995190;28;20428;-65
2022/06/21 01:23:58;;;;;;;4.38;3.47;;;25.60;58.80;;;;;;4994819;28;20448;-65
2022/06/21 01:26:53;;;;;;;4.80;3.50;;;25.60;59.30;;;;;;4977558;28;20489;-65
2022/06/21 01:29:21;;;;;;;5.15;4.03;;;25.60;58.70;;;;;;4977563;28;20929;-66
2022/06/21 01:31:48;;;;;;;4.10;3.58;;;25.60;58.80;;;;;;4976841;28;20395;-65
2022/06/21 01:34:17;;;;;;;4.13;3.50;;;25.60;58.70;;;;;;4977466;28;20764;-65
2022/06/21 01:36:46;;;;;;;4.27;3.77;;;25.60;58.80;;;;;;4994914;28;20426;-66
2022/06/21 01:39:46;;;;;;;4.10;3.50;;;25.60;58.70;;;;;;4994742;28;20485;-66
2022/06/21 01:42:25;;;;;;;3.90;3.50;;;25.60;58.80;;;;;;4947636;28;20423;-66
2022/06/21 01:44:57;;;;;;;4.20;3.58;;;25.60;58.80;;;;;;4994213;28;20414;-66
2022/06/21 01:47:26;;;;;;;3.92;3.53;;;25.60;58.80;;;;;;4994676;28;20398;-65
2022/06/21 01:49:57;;;;;;;4.70;3.63;;;25.60;58.80;;;;;;4976703;28;20398;-65
2022/06/21 01:52:27;;;;;;;4.63;3.60;;;25.60;58.80;;;;;;4994598;28;20426;-65
2022/06/21 01:55:01;;;;;;;4.10;3.70;;;25.60;58.80;;;;;;4977067;28;20391;-65
2022/06/21 01:57:28;;;;;;;4.00;3.50;;;25.60;58.90;;;;;;4994318;28;20402;-66
2022/06/21 01:59:53;;;;;;;4.70;3.65;;;25.60;58.80;;;;;;4976223;28;20815;-66
2022/06/21 02:02:33;;;;;;;3.93;3.60;;;25.60;58.80;;;;;;4976718;28;20505;-66
2022/06/21 02:05:17;;;;;;;4.65;3.50;;;25.60;58.80;;;;;;4973977;28;20430;-65
2022/06/21 02:07:55;;;;;;;3.90;3.50;;;25.60;58.80;;;;;;4994156;28;20394;-66
2022/06/21 02:10:30;;;;;;;3.50;3.20;;;25.60;58.80;;;;;;4994268;28;20382;-65
2022/06/21 02:13:02;;;;;;;3.67;3.20;;;25.60;58.80;;;;;;4994310;28;20893;-66
2022/06/21 02:15:30;;;;;;;3.60;3.30;;;25.60;58.80;;;;;;4976785;28;20409;-66
2022/06/21 02:17:58;;;;;;;4.85;3.47;;;25.60;58.80;;;;;;4993716;28;20461;-65
2022/06/21 02:20:31;;;;;;;3.50;3.20;;;25.60;58.80;;;;;;4994027;28;20754;-65
2022/06/21 02:22:57;;;;;;;3.88;3.28;;;25.50;58.70;;;;;;4994071;28;20395;-66
2022/06/21 02:25:24;;;;;;;3.70;3.40;;;25.60;58.80;;;;;;4993958;28;20863;-66
2022/06/21 02:27:55;;;;;;;3.25;2.92;;;25.50;58.70;;;;;;4975446;28;20395;-66
2022/06/21 02:30:23;;;;;;;3.88;3.47;;;25.60;58.80;;;;;;4993941;28;20390;-66
2022/06/21 02:32:52;;;;;;;3.27;2.90;;;25.50;58.70;;;;;;4993943;28;20466;-66
2022/06/21 02:35:36;;;;;;;4.05;3.47;;;25.60;58.80;;;;;;4976290;28;20433;-66
2022/06/21 02:38:05;;;;;;;3.65;3.30;;;25.50;58.70;;;;;;4993295;28;20391;-66
2022/06/21 02:40:35;;;;;;;4.10;3.10;;;25.50;58.80;;;;;;4993661;28;20903;-66
2022/06/21 02:43:05;;;;;;;3.67;3.10;;;25.50;58.70;;;;;;4993676;28;20434;-66
2022/06/21 02:46:03;;;;;;;3.42;3.13;;;25.50;58.80;;;;;;4976251;28;20846;-65
2022/06/21 02:48:34;;;;;;;3.42;3.00;;;25.50;58.70;;;;;;4978293;28;20741;-66
2022/06/21 02:51:08;;;;;;;3.87;3.03;;;25.50;58.70;;;;;;4976153;28;20390;-65
2022/06/21 02:53:38;;;;;;;3.28;2.70;;;25.50;58.70;;;;;;4976158;28;20398;-65
2022/06/21 02:56:30;;;;;;;3.50;2.97;;;25.50;58.70;;;;;;4992973;28;20382;-66
2022/06/21 02:58:58;;;;;;;3.28;2.97;;;25.50;58.70;;;;;;4993077;28;20403;-66
2022/06/21 03:01:29;;;;;;;3.22;2.80;;;25.50;58.70;;;;;;4993386;28;20418;-65
2022/06/21 03:03:56;;;;;;;2.92;2.63;;;25.50;58.70;;;;;;4992951;28;20387;-65
2022/06/21 03:06:22;;;;;;;3.20;2.90;;;25.50;58.70;;;;;;4993713;28;20406;-66
2022/06/21 03:08:54;;;;;;;3.90;2.80;;;25.50;59.30;;;;;;4993364;28;20382;-66
2022/06/21 03:11:22;;;;;;;3.88;2.90;;;25.50;58.90;;;;;;4993172;28;20542;-66
2022/06/21 03:13:49;;;;;;;7.30;6.18;;;25.50;60.20;;;;;;4975258;28;20398;-65
2022/06/21 03:16:18;;;;;;;5.30;4.53;;;25.50;61.50;;;;;;4992993;28;20409;-65
2022/06/21 03:18:52;;;;;;;3.47;3.00;;;25.50;60.30;;;;;;4993129;28;20495;-66
2022/06/21 03:21:31;;;;;;;5.85;3.95;;;25.50;59.40;;;;;;4992947;28;20450;-67
2022/06/21 03:23:59;;;;;;;4.03;3.22;;;25.60;61.60;;;;;;4992459;28;20391;-67
2022/06/21 03:26:28;;;;;;;4.38;3.35;;;25.60;61.10;;;;;;4993044;28;20417;-66
2022/06/21 03:28:54;;;;;;;3.47;3.17;;;25.60;61.30;;;;;;4975422;28;20395;-67
2022/06/21 03:31:31;;;;;;;4.13;3.15;;;25.60;60.90;;;;;;4992721;28;20393;-67
2022/06/21 03:34:24;;;;;;;4.38;3.00;;;25.70;61.10;;;;;;4974664;28;20403;-66
2022/06/21 03:36:50;;;;;;;3.83;2.95;;;25.70;61.20;;;;;;4972892;28;20426;-67
2022/06/21 03:41:42;;;;;;;7.97;2.90;;;25.70;61.10;;;;;;4975167;28;20394;-65
2022/06/21 03:42:13;;;;;;;4.47;3.08;;;25.70;61.00;;;;;;4992866;28;21013;-67
2022/06/21 03:44:44;;;;;;;5.70;2.70;;;25.80;61.90;;;;;;4992443;28;20438;-66
2022/06/21 03:47:15;;;;;;;3.88;2.60;;;25.70;61.40;;;;;;4992596;28;20393;-66
2022/06/21 03:50:00;;;;;;;3.35;2.50;;;25.80;61.50;;;;;;4975339;28;20390;-67
2022/06/21 03:53:04;;;;;;;4.63;2.50;;;25.80;61.40;;;;;;4992375;28;20410;-66
2022/06/21 03:56:01;;;;;;;2.72;2.25;;;25.70;61.20;;;;;;4978463;28;20403;-66
2022/06/21 03:58:52;;;;;;;3.92;2.35;;;25.70;61.00;;;;;;4992269;28;20398;-66
2022/06/21 04:01:34;;;;;;;6.53;2.42;;;25.70;60.30;;;;;;4991681;28;20426;-67
2022/06/21 04:04:27;;;;;;;5.60;2.30;;;25.70;59.60;;;;;;4991823;28;20473;-66
2022/06/21 04:07:02;;;;;;;5.43;2.38;;;25.60;58.70;;;;;;4992105;28;20431;-64
2022/06/21 04:09:44;;;;;;;6.20;2.30;;;25.60;57.30;;;;;;4992259;28;20743;-66
2022/06/21 04:12:23;;;;;;;6.35;2.15;;;25.50;57.20;;;;;;4991759;28;20397;-66
2022/06/21 04:15:07;;;;;;;6.10;2.20;;;25.50;56.70;;;;;;4991939;28;20447;-65
2022/06/21 04:18:07;;;;;;;4.15;2.10;;;25.50;56.10;;;;;;4991214;28;20903;-66
2022/06/21 04:20:37;;;;;;;4.80;2.10;;;25.50;56.00;;;;;;4992037;28;20421;-66
2022/06/21 04:23:16;;;;;;;6.07;2.05;;;25.40;55.90;;;;;;4975077;28;20426;-66
2022/06/21 04:25:51;;;;;;;4.40;2.05;;;25.40;55.00;;;;;;4992078;28;20446;-66
2022/06/21 04:28:29;;;;;;;5.35;2.10;;;25.30;54.90;;;;;;4974486;28;20403;-65
2022/06/21 04:30:54;;;;;;;7.05;2.10;;;25.30;55.30;;;;;;4992040;28;20399;-66
2022/06/21 04:33:26;;;;;;;5.40;2.22;;;25.30;55.70;;;;;;4974634;28;20425;-66
2022/06/21 04:35:57;;;;;;;6.97;2.20;;;25.30;55.80;;;;;;4974377;28;20485;-66
2022/06/21 04:38:44;;;;;;;4.50;1.90;;;25.30;55.90;;;;;;4974563;28;20755;-67
2022/06/21 04:41:47;;;;;;;5.25;2.08;;;25.30;56.10;;;;;;4974590;28;20914;-65
2022/06/21 04:44:29;;;;;;;4.00;1.90;;;25.30;56.20;;;;;;4967476;28;20402;-63
2022/06/21 04:47:09;;;;;;;3.42;1.80;;;25.30;56.30;;;;;;4991478;28;20390;-66
2022/06/21 04:50:01;;;;;;;5.38;2.10;;;25.30;56.70;;;;;;4992176;28;20430;-66
2022/06/21 04:52:39;;;;;;;6.20;4.68;;;25.30;57.00;;;;;;4994513;28;20477;-66
2022/06/21 04:55:12;;;;;;;8.68;4.60;;;25.40;58.40;;;;;;4995736;28;20383;-66
2022/06/21 04:57:37;;;;;;;4.20;3.60;;;25.40;58.30;;;;;;4999796;28;20383;-65
2022/06/21 05:00:15;;;;;;;4.47;2.88;;;25.40;58.20;;;;;;4996310;28;20939;-65
2022/06/21 05:02:46;;;;;;;4.93;2.40;;;25.40;57.70;;;;;;4997191;28;20503;-66
2022/06/21 05:05:14;;;;;;;4.73;2.40;;;25.40;57.60;;;;;;4994468;28;21055;-66
2022/06/21 05:07:54;;;;;;;4.00;2.25;;;25.40;57.70;;;;;;4995647;28;20428;-65
2022/06/21 05:10:25;;;;;;;5.45;2.10;;;25.30;57.50;;;;;;4977576;28;20395;-67
2022/06/21 05:12:52;;;;;;;3.67;2.00;;;25.40;57.90;;;;;;4977590;28;20402;-65
2022/06/21 05:15:31;;;;;;;3.90;2.10;;;25.30;57.40;;;;;;4995232;28;20390;-64
2022/06/21 05:18:02;;;;;;;3.42;1.88;;;25.40;57.30;;;;;;4991522;28;20485;-65
2022/06/21 05:20:34;;;;;;;3.88;2.05;;;25.30;57.30;;;;;;4979836;28;20389;-64
2022/06/21 05:23:04;;;;;;;3.15;1.90;;;25.30;57.30;;;;;;4996983;28;20401;-65
2022/06/21 05:25:40;;;;;;;2.70;1.80;;;25.30;57.30;;;;;;5014710;28;20786;-65
2022/06/21 05:28:25;;;;;;;3.08;2.10;;;25.30;57.30;;;;;;5013824;28;20881;-65
2022/06/21 05:31:11;;;;;;;3.33;1.85;;;25.30;57.40;;;;;;4996832;28;20404;-65
2022/06/21 05:34:01;;;;;;;2.27;1.90;;;25.30;57.30;;;;;;5014418;28;20424;-64
2022/06/21 05:36:59;;;;;;;4.22;2.00;;;25.30;57.50;;;;;;4988981;28;20424;-65
2022/06/21 05:39:35;;;;;;;2.95;2.00;;;25.30;57.40;;;;;;4996575;28;20892;-63
2022/06/21 05:42:03;;;;;;;2.92;1.90;;;25.30;57.40;;;;;;4996418;28;20428;-66
2022/06/21 05:44:31;;;;;;;4.13;2.20;;;25.30;57.40;;;;;;5013915;28;20404;-66
2022/06/21 05:47:10;;;;;;;4.55;1.80;;;25.30;57.30;;;;;;5014050;28;20395;-66
2022/06/21 05:49:37;;;;;;;3.40;2.00;;;25.30;57.40;;;;;;4996198;28;20395;-67
2022/06/21 05:52:16;;;;;;;2.45;1.73;;;25.30;57.30;;;;;;5013622;28;20886;-66
2022/06/21 05:54:54;;;;;;;3.10;1.80;;;25.30;57.40;;;;;;5014050;28;20389;-63
2022/06/21 05:57:23;;;;;;;3.33;1.90;;;25.30;57.50;;;;;;5013803;28;20404;-66
2022/06/21 05:59:49;;;;;;;3.47;1.93;;;25.30;57.40;;;;;;5013600;28;20392;-63
2022/06/21 06:02:37;;;;;;;3.25;1.90;;;25.30;57.40;;;;;;5012730;28;20423;-64
2022/06/21 06:05:18;;;;;;;4.13;1.90;;;25.30;57.20;;;;;;5013561;28;20432;-67
2022/06/21 06:07:50;;;;;;;4.07;1.88;;;25.30;56.20;;;;;;4995924;28;20905;-66
2022/06/21 06:10:20;;;;;;;4.03;2.00;;;25.20;55.70;;;;;;5012947;28;20745;-65
2022/06/21 06:12:50;;;;;;;3.95;1.90;;;25.30;56.00;;;;;;5013624;28;20397;-66
2022/06/21 06:15:51;;;;;;;2.45;1.77;;;25.20;55.80;;;;;;5013017;28;20519;-66
2022/06/21 06:18:29;;;;;;;3.50;1.77;;;25.20;56.30;;;;;;4954322;28;20404;-66
2022/06/21 06:21:00;;;;;;;3.25;2.00;;;25.20;56.30;;;;;;5009842;28;20411;-66
2022/06/21 06:23:41;;;;;;;3.55;1.52;;;25.20;56.40;;;;;;4996957;28;20455;-66
2022/06/21 06:26:13;;;;;;;3.00;1.67;;;25.20;56.50;;;;;;4987142;28;20475;-67
2022/06/21 06:28:46;;;;;;;2.78;1.65;;;25.20;56.50;;;;;;5006846;28;20916;-66
2022/06/21 06:31:34;;;;;;;2.72;1.70;;;25.20;56.50;;;;;;5003970;28;20400;-65
2022/06/21 06:34:12;;;;;;;3.72;1.70;;;25.20;56.50;;;;;;5000332;28;20907;-65
2022/06/21 06:36:47;;;;;;;3.10;1.70;;;25.20;56.60;;;;;;5004056;28;20421;-66
2022/06/21 06:39:24;;;;;;;2.50;1.63;;;25.10;56.50;;;;;;5001641;28;20384;-63
2022/06/21 06:42:02;;;;;;;3.40;1.80;;;25.10;56.60;;;;;;4992370;28;20422;-66
2022/06/21 06:44:31;;;;;;;2.50;1.60;;;25.10;56.60;;;;;;4972383;28;20995;-66
2022/06/21 06:46:59;;;;;;;2.47;1.60;;;25.10;56.70;;;;;;5013180;28;20468;-66
2022/06/21 06:49:34;;;;;;;2.67;1.60;;;25.10;56.70;;;;;;4995468;28;20400;-66
2022/06/21 06:52:21;;;;;;;2.70;1.50;;;25.10;56.80;;;;;;5012713;28;20904;-66
2022/06/21 06:55:33;;;;;;;3.03;1.73;;;25.10;56.80;;;;;;5013038;28;20416;-67
2022/06/21 06:58:10;;;;;;;2.50;1.73;;;25.10;56.80;;;;;;5004753;28;20523;-66
2022/06/21 07:00:44;;;;;;;2.08;1.70;;;25.10;56.80;;;;;;5012854;28;20405;-66
2022/06/21 07:03:17;;;;;;;2.00;1.60;;;25.10;56.80;;;;;;5012737;28;20397;-66
2022/06/21 07:05:58;;;;;;;2.17;1.52;;;25.10;56.90;;;;;;5012343;28;20389;-66
2022/06/21 07:08:52;;;;;;;2.40;1.80;;;25.10;56.90;;;;;;4997735;28;20390;-66
2022/06/21 07:11:52;;;;;;;1.90;1.60;;;25.10;56.90;;;;;;4975610;28;20491;-66
2022/06/21 07:14:24;;;;;;;2.45;1.65;;;25.10;57.00;;;;;;4972504;28;20430;-65
2022/06/21 07:16:55;;;;;;;2.22;1.75;;;25.10;57.50;;;;;;4992764;28;20398;-65
2022/06/21 07:19:21;;;;;;;2.15;1.70;;;25.10;56.90;;;;;;4992836;28;20746;-65
2022/06/21 07:21:47;;;;;;;1.95;1.70;;;25.10;57.00;;;;;;5004137;28;20522;-66
2022/06/21 07:24:18;;;;;;;2.97;1.77;;;25.10;57.00;;;;;;5011358;28;20755;-65
2022/06/21 07:26:51;;;;;;;1.92;1.60;;;25.10;57.00;;;;;;5011073;28;20467;-66
2022/06/21 07:29:37;;;;;;;2.17;1.50;;;25.10;57.00;;;;;;4994720;28;20431;-66
2022/06/21 07:32:23;;;;;;;2.00;1.60;;;25.10;57.00;;;;;;5011420;28;20873;-64
2022/06/21 07:35:07;;;;;;;2.38;1.60;;;25.10;57.10;;;;;;5012368;28;20801;-66
2022/06/21 07:37:51;;;;;;;2.20;1.63;;;25.10;57.10;;;;;;5012119;28;20393;-66
2022/06/21 07:40:28;;;;;;;1.63;1.52;;;25.10;57.10;;;;;;5004087;28;20442;-66
2022/06/21 07:43:02;;;;;;;1.80;1.60;;;25.10;57.10;;;;;;4975359;28;20401;-67
2022/06/21 07:45:52;;;;;;;1.80;1.60;;;25.00;57.10;;;;;;5006917;28;20936;-65
2022/06/21 07:48:25;;;;;;;2.10;1.40;;;25.10;57.10;;;;;;5011493;28;20400;-65
2022/06/21 07:51:04;;;;;;;2.20;1.60;;;25.10;57.10;;;;;;5000795;28;20489;-66
2022/06/21 07:53:40;;;;;;;2.08;1.60;;;25.10;57.10;;;;;;4974083;28;20478;-66
2022/06/21 07:56:16;;;;;;;2.42;1.70;;;25.00;57.10;;;;;;4991509;28;20396;-65
2022/06/21 07:59:22;;;;;;;2.25;1.80;;;25.10;57.10;;;;;;5011484;28;20392;-66
2022/06/21 08:08:35;;;;;;;3.58;1.85;;;25.00;57.10;;;;;;4998003;28;20388;-65
2022/06/21 08:11:13;;;;;;;3.50;2.00;;;25.00;57.10;;;;;;4998814;28;20395;-65
2022/06/21 08:13:40;;;;;;;4.18;1.90;;;25.00;57.10;;;;;;4984603;28;20492;-66
2022/06/21 08:16:17;;;;;;;3.10;2.00;;;25.00;57.10;;;;;;5011361;28;20462;-63
2022/06/21 08:18:46;;;;;;;3.63;1.88;;;25.00;57.10;;;;;;5011630;28;20435;-66
2022/06/21 08:21:17;;;;;;;4.03;1.90;;;25.00;57.10;;;;;;5011356;28;20973;-66
2022/06/21 08:23:55;;;;;;;5.15;2.03;;;25.00;57.10;;;;;;5011558;28;20400;-67
2022/06/21 08:26:26;;;;;;;3.00;1.90;;;25.00;57.10;;;;;;4992428;28;20397;-66
2022/06/21 08:29:06;;;;;;;2.83;1.80;;;25.00;57.10;;;;;;5011410;28;20400;-65
2022/06/21 08:31:41;;;;;;;3.35;2.10;;;25.00;57.10;;;;;;4993839;28;20923;-65
2022/06/21 08:34:13;;;;;;;6.80;2.65;;;25.00;57.10;;;;;;5010844;28;20396;-65
2022/06/21 08:36:47;;;;;;;9.68;2.70;;;25.00;57.00;;;;;;5011432;28;20442;-66
2022/06/21 08:39:24;;;;;;;6.20;2.67;;;25.10;57.00;;;;;;5011026;28;20385;-63
2022/06/21 08:42:37;;;;;;;9.27;2.60;;;25.00;56.90;;;;;;4993195;28;20413;-63
2022/06/21 08:48:30;;;;;;;5.67;2.70;;;25.00;56.90;;;;;;5011019;28;20423;-64
2022/06/21 08:51:14;;;;;;;5.38;3.10;;;25.10;56.90;;;;;;4993618;28;20424;-68
2022/06/21 08:54:00;;;;;;;4.80;2.83;;;25.10;56.90;;;;;;4993565;28;20459;-66
2022/06/21 08:57:04;;;;;;;4.55;2.50;;;25.10;56.90;;;;;;5010084;28;20408;-66
2022/06/21 09:00:00;;;;;;;4.95;2.92;;;25.10;56.90;;;;;;5011224;28;20824;-66
2022/06/21 09:02:57;;;;;;;4.22;2.85;;;25.10;56.90;;;;;;5010561;28;20420;-66
2022/06/21 09:05:29;;;;;;;5.15;2.90;;;25.10;56.90;;;;;;5011158;28;20460;-66
2022/06/21 09:08:16;;;;;;;4.45;2.80;;;25.10;56.80;;;;;;5010983;28;20753;-66
2022/06/21 09:11:37;;;;;;;4.73;2.60;;;25.10;56.90;;;;;;5010995;28;20392;-66
2022/06/21 09:14:22;;;;;;;3.97;2.70;;;25.10;56.90;;;;;;4964342;28;20402;-66
2022/06/21 09:17:00;;;;;;;5.13;2.80;;;25.10;56.80;;;;;;4991509;28;20930;-66
2022/06/21 09:19:41;;;;;;;4.17;2.53;;;25.10;56.90;;;;;;4974189;28;20399;-67
2022/06/21 09:22:12;;;;;;;4.78;2.47;;;25.10;57.00;;;;;;4992526;28;20427;-66
2022/06/21 09:24:41;;;;;;;5.17;2.80;;;25.10;56.90;;;;;;5011256;28;20989;-66
2022/06/21 09:27:38;;;;;;;5.88;2.72;;;25.10;57.00;;;;;;5010914;28;20452;-66
2022/06/21 09:30:32;;;;;;;4.50;2.45;;;25.10;57.00;;;;;;5011190;28;20384;-66
2022/06/21 09:33:07;;;;;;;4.38;2.67;;;25.10;56.90;;;;;;5011046;28;20404;-66
2022/06/21 09:36:08;;;;;;;4.30;2.50;;;25.20;57.00;;;;;;5011084;28;20381;-66
2022/06/21 09:38:52;;;;;;;8.02;3.10;;;25.20;57.00;;;;;;4995618;28;20443;-66
2022/06/21 09:41:42;;;;;;;3.72;2.75;;;25.20;57.20;;;;;;5014236;28;20409;-66
2022/06/21 09:44:19;;;;;;;5.75;3.03;;;25.20;57.20;;;;;;5013790;28;20389;-66
2022/06/21 09:46:44;;;;;;;4.30;2.85;;;25.20;57.00;;;;;;5014417;28;20403;-67
2022/06/21 09:49:29;;;;;;;6.40;4.18;;;25.30;57.20;;;;;;4999332;28;20418;-66
2022/06/21 09:52:09;;;;;;;6.15;2.80;;;25.30;57.60;;;;;;4976789;28;20445;-66
2022/06/21 09:54:41;;;;;;;5.15;2.90;;;25.30;57.60;;;;;;4994363;28;20761;-67
2022/06/21 09:57:12;;;;;;;4.68;3.33;;;25.30;57.50;;;;;;4994413;28;20390;-66
2022/06/21 10:00:07;;;;;;;6.20;2.85;;;25.30;57.60;;;;;;4994603;28;20502;-66
2022/06/21 10:03:10;;;;;;;4.13;2.80;;;25.30;57.50;;;;;;4986827;28;20455;-67
2022/06/21 10:06:04;;;;;;;4.93;2.97;;;25.30;57.20;;;;;;5013808;28;20975;-65
2022/06/21 10:08:32;;;;;;;5.65;2.90;;;25.30;57.50;;;;;;5012505;28;20397;-67
2022/06/21 10:11:21;;;;;;;4.43;2.72;;;25.30;57.40;;;;;;4995589;28;20975;-66
2022/06/21 10:13:49;;;;;;;4.68;2.78;;;25.30;57.50;;;;;;4995790;28;20408;-66
2022/06/21 10:16:40;;;;;;;4.50;3.05;;;25.30;57.50;;;;;;4995424;28;20904;-64
2022/06/21 10:19:31;;;;;;;3.80;2.80;;;25.30;57.30;;;;;;4995782;28;20483;-66
2022/06/21 10:22:35;;;;;;;3.17;2.83;;;25.40;57.30;;;;;;4995568;28;21063;-66
2022/06/21 10:25:27;;;;;;;4.03;2.90;;;25.40;57.40;;;;;;5005185;28;20474;-66
2022/06/21 10:28:04;;;;;;;5.03;3.25;;;25.40;57.50;;;;;;4975928;28;20563;-66
2022/06/21 10:31:05;;;;;;;4.82;3.45;;;25.40;57.60;;;;;;4993371;28;20395;-64
2022/06/21 10:34:08;;;;;;;3.85;2.72;;;25.40;57.50;;;;;;4959285;28;20859;-65
2022/06/21 10:37:04;;;;;;;3.78;2.80;;;25.40;57.50;;;;;;4993429;28;20402;-65
2022/06/21 10:39:45;;;;;;;3.77;2.83;;;25.40;57.50;;;;;;4993555;28;20881;-66
2022/06/21 10:42:47;;;;;;;3.20;2.90;;;25.40;57.30;;;;;;4975663;28;20432;-66
2022/06/21 10:45:40;;;;;;;3.60;3.30;;;25.40;57.30;;;;;;4975729;28;20414;-66
2022/06/21 10:48:37;;;;;;;3.65;3.08;;;25.40;57.30;;;;;;4975722;28;20391;-66
2022/06/21 10:51:11;;;;;;;3.80;2.90;;;25.40;57.20;;;;;;4993143;28;20390;-66
2022/06/21 10:54:01;;;;;;;3.60;3.03;;;25.40;57.80;;;;;;4993528;28;20855;-66
2022/06/21 11:02:39;;;;;;;4.18;3.17;;;25.40;57.20;;;;;;4992742;28;20756;-64
2022/06/21 11:05:24;;;;;;;3.95;2.92;;;25.40;57.20;;;;;;4992275;28;20429;-66
2022/06/21 11:08:15;;;;;;;3.47;3.15;;;25.40;57.20;;;;;;4993124;28;20393;-65
2022/06/21 11:10:46;;;;;;;3.72;2.85;;;25.40;57.30;;;;;;4992789;28;20390;-66
2022/06/21 11:13:15;;;;;;;4.43;3.10;;;25.40;57.30;;;;;;4992696;28;20391;-66
2022/06/21 11:16:40;;;;;;;3.63;3.00;;;25.40;57.20;;;;;;4975363;28;20406;-65
2022/06/21 11:19:17;;;;;;;3.80;3.30;;;25.40;57.10;;;;;;4951938;29;20406;-65
2022/06/21 11:21:54;;;;;;;4.18;2.97;;;25.40;57.20;;;;;;4975372;28;20430;-64
2022/06/21 11:24:30;;;;;;;4.72;3.40;;;25.40;57.30;;;;;;4974767;28;20429;-65
2022/06/21 11:27:14;;;;;;;3.47;3.10;;;25.40;57.20;;;;;;4975146;28;20434;-65
2022/06/21 11:30:18;;;;;;;3.40;3.08;;;25.40;57.20;;;;;;4992628;28;20386;-67
2022/06/21 11:33:18;;;;;;;3.67;3.17;;;25.40;57.10;;;;;;4992738;28;20445;-65
2022/06/21 11:35:54;;;;;;;3.67;3.08;;;25.40;57.70;;;;;;4960006;28;20406;-63
2022/06/21 11:38:36;;;;;;;3.30;3.00;;;25.40;57.10;;;;;;4973937;28;20442;-65
2022/06/21 11:41:11;;;;;;;4.55;3.35;;;25.40;57.10;;;;;;4974749;28;21001;-65
2022/06/21 11:43:54;;;;;;;3.85;3.47;;;25.40;57.00;;;;;;4992585;28;20898;-64
2022/06/21 11:46:41;;;;;;;4.10;3.30;;;25.40;57.00;;;;;;4991988;28;20548;-64
2022/06/21 11:49:25;;;;;;;3.47;3.17;;;25.40;56.90;;;;;;4992281;28;20411;-65
2022/06/21 11:52:23;;;;;;;4.23;3.43;;;25.40;57.10;;;;;;4975036;28;20394;-64
2022/06/21 11:55:00;;;;;;;3.75;3.20;;;25.40;57.10;;;;;;4969800;28;20445;-64
2022/06/21 11:57:32;;;;;;;4.30;3.45;;;25.40;56.90;;;;;;4974807;28;20406;-67
2022/06/21 12:00:30;;;;;;;3.72;3.30;;;25.40;56.90;;;;;;4992185;28;20386;-64
2022/06/21 12:02:56;;;;;;;3.83;3.42;;;25.40;56.90;;;;;;4991499;28;20421;-63
2022/06/21 12:05:40;;;;;;;3.95;3.20;;;25.40;56.90;;;;;;4992122;28;20426;-64
2022/06/21 12:08:28;;;;;;;3.80;3.40;;;25.40;56.90;;;;;;4992001;28;20379;-63
2022/06/21 12:11:05;;;;;;;3.65;3.30;;;25.40;56.90;;;;;;4974377;28;20387;-65
2022/06/21 12:13:44;;;;;;;3.55;3.25;;;25.40;56.90;;;;;;4993308;28;20477;-63
2022/06/21 12:16:28;;;;;;;3.90;3.50;;;25.40;56.90;;;;;;4992002;28;20394;-66
2022/06/21 12:19:04;;;;;;;3.85;3.45;;;25.50;57.00;;;;;;4974299;28;20886;-63
2022/06/21 12:21:34;;;;;;;4.07;3.67;;;25.50;56.90;;;;;;4974123;28;20489;-64
2022/06/21 12:24:12;;;;;;;4.05;3.53;;;25.50;56.90;;;;;;4991683;28;20459;-66
2022/06/21 12:26:40;;;;;;;4.20;3.40;;;25.50;56.90;;;;;;4991370;28;20405;-65
2022/06/21 12:29:17;;;;;;;9.27;3.25;;;25.50;56.90;;;;;;4974125;28;20410;-63
2022/06/21 12:31:50;;;;;;;12.40;3.47;;;25.50;56.90;;;;;;5002729;28;20441;-63
2022/06/21 12:34:40;;;;;;;5.93;3.50;;;25.50;56.90;;;;;;4999656;28;20459;-63
2022/06/21 12:37:20;;;;;;;4.15;3.40;;;25.50;56.90;;;;;;4974286;28;20489;-63
2022/06/21 12:40:10;;;;;;;4.93;3.38;;;25.50;56.80;;;;;;4974542;28;20398;-63
2022/06/21 12:43:00;;;;;;;4.22;3.42;;;25.50;56.80;;;;;;4976753;28;20430;-66
2022/06/21 12:46:04;;;;;;;4.20;3.30;;;25.50;56.80;;;;;;5000888;28;20480;-65
2022/06/21 12:48:55;;;;;;;5.10;3.80;;;25.50;56.80;;;;;;4958833;28;20500;-64
2022/06/21 12:51:48;;;;;;;4.28;3.75;;;25.50;56.70;;;;;;5001165;28;20457;-65
2022/06/21 12:54:36;;;;;;;4.97;3.35;;;25.50;56.90;;;;;;4981205;28;20421;-66
2022/06/21 12:57:21;;;;;;;6.00;3.40;;;25.50;56.90;;;;;;4982952;28;20386;-67
2022/06/21 13:00:10;;;;;;;3.90;3.40;;;25.50;56.80;;;;;;5000967;28;20391;-67
2022/06/21 13:03:20;;;;;;;4.00;3.33;;;25.50;56.80;;;;;;5002151;28;20490;-63
2022/06/21 13:06:05;;;;;;;4.33;3.60;;;25.50;56.80;;;;;;4993341;28;20447;-65
2022/06/21 13:09:08;;;;;;;3.45;3.10;;;25.50;56.70;;;;;;4992864;28;20401;-64
2022/06/21 13:12:06;;;;;;;5.10;3.53;;;25.50;56.70;;;;;;4991527;28;20398;-63
2022/06/21 13:14:38;;;;;;;4.73;3.67;;;25.50;56.70;;;;;;4941760;28;20407;-63
2022/06/21 13:17:25;;;;;;;3.72;3.33;;;25.50;56.70;;;;;;4995043;28;20390;-67
2022/06/21 13:20:38;;;;;;;3.88;3.47;;;25.50;56.70;;;;;;4977420;28;20429;-65
2022/06/21 13:23:21;;;;;;;4.80;3.50;;;25.50;56.70;;;;;;4989529;28;20423;-66
2022/06/21 13:25:56;;;;;;;4.25;3.40;;;25.50;56.70;;;;;;4994894;28;20401;-66
2022/06/21 13:28:52;;;;;;;4.55;3.60;;;25.50;56.70;;;;;;4977303;28;20462;-66
2022/06/21 13:31:38;;;;;;;9.43;3.65;;;25.50;56.70;;;;;;4994874;28;20421;-66
2022/06/21 13:34:19;;;;;;;9.73;3.60;;;25.50;56.80;;;;;;4977316;28;20398;-64
2022/06/21 13:36:49;;;;;;;14.88;3.88;;;25.60;56.80;;;;;;4994156;28;20984;-65
2022/06/21 13:39:31;;;;;;;8.77;3.85;;;25.60;56.80;;;;;;4994595;28;20484;-64
2022/06/21 13:45:30;;;;;;;8.63;3.50;;;25.60;56.80;;;;;;4994328;28;20559;-63
2022/06/21 13:48:20;;;;;;;6.82;3.60;;;25.60;56.80;;;;;;4957592;28;20906;-64
2022/06/21 13:51:33;;;;;;;7.13;3.87;;;25.60;56.80;;;;;;4994957;28;20397;-64
2022/06/21 13:54:17;;;;;;;6.03;3.83;;;25.60;56.80;;;;;;5003694;28;20910;-64
2022/06/21 13:56:52;;;;;;;5.88;3.63;;;25.60;56.80;;;;;;5003528;28;20488;-66
2022/06/21 13:59:27;;;;;;;4.90;3.67;;;25.50;56.70;;;;;;5003498;28;20770;-65
2022/06/21 14:02:13;;;;;;;6.15;3.80;;;25.60;56.80;;;;;;5002305;28;20473;-65
2022/06/21 14:05:08;;;;;;;5.63;4.00;;;25.60;56.70;;;;;;5003141;28;20387;-65
2022/06/21 14:07:55;;;;;;;4.95;3.40;;;25.60;56.80;;;;;;5002605;28;20395;-64
2022/06/21 14:10:46;;;;;;;5.38;3.75;;;25.50;56.70;;;;;;5003506;28;20394;-64
2022/06/21 14:13:24;;;;;;;4.55;3.65;;;25.60;56.70;;;;;;5001850;28;20402;-65